Time;durP1;ratioP1;P1;durP2;ratioP2;P2;SDS_P1;SDS_P2;PMS_P1;PMS_P2;Temp;Humidity;BMP_temperature;BMP_pressure;BME280_temperature;BME280_humidity;BME280_pressure;Samples;Min_cycle;Max_cycle;Signal;HPM_P1;HPM_P2
2023/06/21 00:03:36;;;;;;;4.38;2.20;;;;;;;;;;10265545;28;20318;-81
2023/06/21 00:08:36;;;;;;;5.67;2.70;;;;;;;;;;10267869;28;20483;-79
2023/06/21 00:13:36;;;;;;;5.57;2.67;;;;;;;;;;10264688;28;20134;-80
2023/06/21 00:18:36;;;;;;;6.00;2.83;;;;;;;;;;10267437;28;20448;-80
2023/06/21 00:23:37;;;;;;;3.33;2.67;;;;;;;;;;10273106;28;20419;-79
2023/06/21 00:28:37;;;;;;;5.47;3.03;;;;;;;;;;10272380;28;20055;-80
2023/06/21 00:33:38;;;;;;;3.78;2.55;;;;;;;;;;10282353;28;20054;-79
2023/06/21 00:38:39;;;;;;;6.43;3.15;;;;;;;;;;10270982;28;20266;-76
2023/06/21 00:43:39;;;;;;;4.97;3.23;;;;;;;;;;10271819;28;20051;-75
2023/06/21 00:48:40;;;;;;;4.00;2.90;;;;;;;;;;10266455;28;20519;-77
2023/06/21 00:53:41;;;;;;;5.07;3.03;;;;;;;;;;10262072;28;20407;-75
2023/06/21 00:58:43;;;;;;;6.35;3.47;;;;;;;;;;10267606;28;20065;-78
2023/06/21 01:03:44;;;;;;;7.38;3.55;;;;;;;;;;10295400;23;20403;-79
2023/06/21 01:09:02;;;;;;;5.10;3.22;;;;;;;;;;10247115;28;20062;-82
2023/06/21 01:14:14;;;;;;;5.07;3.40;;;;;;;;;;10262109;28;20506;-79
2023/06/21 01:19:15;;;;;;;;;;;;;;;;;;10264674;28;20121;-79
2023/06/21 01:24:25;;;;;;;6.22;3.50;;;;;;;;;;10266438;28;19992;-82
2023/06/21 01:29:33;;;;;;;6.72;3.60;;;;;;;;;;10264464;28;20503;-81
2023/06/21 01:34:34;;;;;;;5.03;3.60;;;;;;;;;;10248764;28;20046;-82
2023/06/21 01:39:35;;;;;;;4.73;3.73;;;;;;;;;;10267658;28;20053;-81
2023/06/21 01:44:36;;;;;;;5.93;3.72;;;;;;;;;;10246322;28;20047;-82
2023/06/21 01:49:37;;;;;;;4.60;3.83;;;;;;;;;;10242085;28;20221;-80
2023/06/21 01:54:41;;;;;;;4.45;3.60;;;;;;;;;;10249868;28;20153;-80
2023/06/21 01:59:42;;;;;;;6.20;3.92;;;;;;;;;;10247282;28;20043;-82
2023/06/21 02:04:43;;;;;;;5.25;3.72;;;;;;;;;;10247327;28;20059;-81
2023/06/21 02:09:44;;;;;;;4.93;3.92;;;;;;;;;;10259492;28;20133;-79
2023/06/21 02:14:44;;;;;;;6.90;4.03;;;;;;;;;;10244517;28;20045;-78
2023/06/21 02:19:45;;;;;;;7.80;4.60;;;;;;;;;;10246149;28;20051;-80
2023/06/21 02:24:45;;;;;;;9.17;4.47;;;;;;;;;;10253670;28;20050;-80
2023/06/21 02:29:45;;;;;;;7.07;4.57;;;;;;;;;;10252560;28;20105;-79
2023/06/21 02:34:46;;;;;;;8.80;4.93;;;;;;;;;;10255023;28;20051;-79
2023/06/21 02:39:46;;;;;;;8.80;5.35;;;;;;;;;;10262141;28;20043;-78
2023/06/21 02:44:47;;;;;;;8.30;5.28;;;;;;;;;;10244130;28;20046;-79
2023/06/21 02:49:47;;;;;;;6.57;4.70;;;;;;;;;;10240792;28;20115;-80
2023/06/21 02:54:48;;;;;;;8.20;5.13;;;;;;;;;;10261545;28;20039;-77
2023/06/21 02:59:48;;;;;;;5.50;4.45;;;;;;;;;;10245685;28;20309;-77
2023/06/21 03:04:49;;;;;;;6.20;5.32;;;;;;;;;;10262304;28;20050;-78
2023/06/21 03:09:49;;;;;;;7.90;5.70;;;;;;;;;;10244930;28;20050;-77
2023/06/21 03:14:50;;;;;;;8.02;5.15;;;;;;;;;;10238837;28;20451;-80
2023/06/21 03:19:51;;;;;;;7.43;5.50;;;;;;;;;;10253785;28;20049;-81
2023/06/21 03:24:51;;;;;;;9.20;5.55;;;;;;;;;;10279927;28;20150;-81
2023/06/21 03:29:52;;;;;;;7.60;5.20;;;;;;;;;;10272862;28;20518;-80
2023/06/21 03:34:52;;;;;;;8.48;6.00;;;;;;;;;;10273327;28;20286;-78
2023/06/21 03:39:53;;;;;;;7.57;6.17;;;;;;;;;;10283360;28;20046;-79
2023/06/21 03:44:53;;;;;;;6.65;5.70;;;;;;;;;;10292905;28;20741;-81
2023/06/21 03:49:57;;;;;;;10.32;6.97;;;;;;;;;;10275197;28;20054;-77
2023/06/21 03:54:58;;;;;;;7.75;5.85;;;;;;;;;;10258107;28;20051;-79
2023/06/21 03:59:59;;;;;;;9.55;6.40;;;;;;;;;;10270697;28;20514;-79
2023/06/21 04:05:03;;;;;;;8.40;6.20;;;;;;;;;;10252714;28;20509;-79
2023/06/21 04:10:08;;;;;;;9.05;6.68;;;;;;;;;;10248619;28;20340;-81
2023/06/21 04:15:09;;;;;;;8.23;6.28;;;;;;;;;;10255780;28;20054;-81
2023/06/21 04:20:13;;;;;;;10.73;7.45;;;;;;;;;;10259651;28;20137;-79
2023/06/21 04:25:14;;;;;;;9.87;7.37;;;;;;;;;;10253318;28;20537;-79
2023/06/21 04:30:15;;;;;;;10.25;6.88;;;;;;;;;;10271875;28;20054;-80
2023/06/21 04:35:16;;;;;;;12.37;8.80;;;;;;;;;;10263858;28;20050;-77
2023/06/21 04:40:17;;;;;;;10.38;8.38;;;;;;;;;;10261733;28;20086;-76
2023/06/21 04:45:18;;;;;;;12.77;8.13;;;;;;;;;;10266093;28;20153;-79
2023/06/21 04:50:19;;;;;;;12.27;10.02;;;;;;;;;;10279393;28;20817;-77
2023/06/21 04:55:20;;;;;;;15.90;10.97;;;;;;;;;;10288995;28;20054;-78
2023/06/21 05:00:20;;;;;;;14.27;9.43;;;;;;;;;;10269592;28;20074;-75
2023/06/21 05:05:21;;;;;;;14.80;9.98;;;;;;;;;;10263766;28;20774;-75
2023/06/21 05:10:21;;;;;;;14.27;10.83;;;;;;;;;;10254775;28;20517;-77
2023/06/21 05:15:21;;;;;;;15.33;11.80;;;;;;;;;;10251638;28;20038;-72
2023/06/21 05:20:22;;;;;;;13.40;10.35;;;;;;;;;;10266945;28;20623;-71
2023/06/21 05:25:22;;;;;;;14.00;10.27;;;;;;;;;;10268106;28;20038;-72
2023/06/21 05:30:22;;;;;;;17.77;11.50;;;;;;;;;;10266532;28;20066;-71
2023/06/21 05:35:23;;;;;;;12.97;10.27;;;;;;;;;;10263520;28;20052;-76
2023/06/21 05:40:23;;;;;;;13.80;9.80;;;;;;;;;;10264047;28;20074;-72
2023/06/21 05:45:24;;;;;;;9.83;8.60;;;;;;;;;;10242688;28;20065;-73
2023/06/21 05:50:24;;;;;;;11.57;9.10;;;;;;;;;;10265858;28;20326;-72
2023/06/21 05:55:25;;;;;;;12.80;9.30;;;;;;;;;;10267788;28;20317;-72
2023/06/21 06:00:25;;;;;;;11.07;9.07;;;;;;;;;;10266887;28;20073;-69
2023/06/21 06:05:26;;;;;;;15.17;9.90;;;;;;;;;;10253307;28;20142;-74
2023/06/21 06:10:29;;;;;;;11.17;8.40;;;;;;;;;;10259282;28;20054;-76
2023/06/21 06:15:31;;;;;;;9.95;8.85;;;;;;;;;;10247229;28;20297;-70
2023/06/21 06:20:31;;;;;;;12.75;8.73;;;;;;;;;;10260295;28;20074;-79
2023/06/21 06:25:31;;;;;;;11.37;9.87;;;;;;;;;;10246501;28;20094;-74
2023/06/21 06:30:32;;;;;;;10.60;9.30;;;;;;;;;;10261535;28;20625;-73
2023/06/21 06:35:32;;;;;;;9.67;8.67;;;;;;;;;;10251598;28;20644;-75
2023/06/21 06:40:33;;;;;;;10.30;8.45;;;;;;;;;;10256497;28;20301;-73
2023/06/21 06:45:33;;;;;;;9.98;8.45;;;;;;;;;;10289331;28;20058;-70
2023/06/21 06:50:36;;;;;;;11.23;8.30;;;;;;;;;;10297791;28;20352;-69
2023/06/21 06:55:36;;;;;;;10.02;8.20;;;;;;;;;;10276815;28;20085;-77
2023/06/21 07:00:37;;;;;;;10.90;8.70;;;;;;;;;;10263662;28;20042;-78
2023/06/21 07:05:42;;;;;;;8.80;7.77;;;;;;;;;;10249645;28;20124;-74
2023/06/21 07:10:43;;;;;;;8.00;7.20;;;;;;;;;;10263319;28;20357;-74
2023/06/21 07:15:43;;;;;;;10.30;8.05;;;;;;;;;;10250788;28;20432;-75
2023/06/21 07:20:44;;;;;;;9.70;7.80;;;;;;;;;;10264497;28;20047;-84
2023/06/21 07:25:44;;;;;;;9.23;7.78;;;;;;;;;;10239302;28;20186;-86
2023/06/21 07:30:44;;;;;;;9.60;8.60;;;;;;;;;;10260734;28;20101;-85
2023/06/21 07:35:45;;;;;;;10.30;7.97;;;;;;;;;;10259346;28;20124;-79
2023/06/21 07:40:45;;;;;;;9.00;7.43;;;;;;;;;;10265934;28;20688;-82
2023/06/21 07:45:45;;;;;;;9.23;7.40;;;;;;;;;;10232224;28;20043;-76
2023/06/21 07:50:46;;;;;;;9.60;7.15;;;;;;;;;;10260405;28;20322;-75
2023/06/21 07:55:46;;;;;;;8.27;7.17;;;;;;;;;;10264061;28;20113;-83
2023/06/21 08:00:48;;;;;;;10.50;7.32;;;;;;;;;;10265234;28;20325;-86
2023/06/21 08:05:48;;;;;;;8.07;6.77;;;;;;;;;;10246815;28;20042;-77
2023/06/21 08:10:48;;;;;;;7.23;5.30;;;;;;;;;;10261860;28;20311;-85
2023/06/21 08:15:51;;;;;;;8.00;5.10;;;;;;;;;;10247979;28;20102;-80
2023/06/21 08:20:51;;;;;;;;;;;;;;;;;;10270958;28;20038;-77
2023/06/21 08:25:51;;;;;;;8.15;4.78;;;;;;;;;;10257391;28;19969;-76
2023/06/21 08:30:52;;;;;;;6.93;4.43;;;;;;;;;;10276377;28;20392;-74
2023/06/21 08:35:52;;;;;;;7.83;4.63;;;;;;;;;;10261638;28;20134;-71
2023/06/21 08:40:57;;;;;;;8.20;3.95;;;;;;;;;;10282549;28;20294;-72
2023/06/21 08:45:58;;;;;;;6.53;3.65;;;;;;;;;;10270782;28;20044;-71
2023/06/21 08:50:59;;;;;;;7.53;3.75;;;;;;;;;;10272757;28;20059;-75
2023/06/21 08:56:00;;;;;;;5.47;3.33;;;;;;;;;;10262955;28;20039;-81
2023/06/21 09:01:00;;;;;;;6.18;3.55;;;;;;;;;;10269938;28;20449;-71
2023/06/21 09:06:09;;;;;;;6.43;3.65;;;;;;;;;;10260086;28;20061;-72
2023/06/21 09:11:10;;;;;;;6.00;3.50;;;;;;;;;;10275613;28;20399;-71
2023/06/21 09:16:12;;;;;;;6.20;4.07;;;;;;;;;;10234967;28;20058;-79
2023/06/21 09:21:13;;;;;;;6.32;4.18;;;;;;;;;;10262121;28;20054;-78
2023/06/21 09:26:14;;;;;;;5.35;4.28;;;;;;;;;;10238071;28;20050;-80
2023/06/21 09:31:14;;;;;;;5.30;3.97;;;;;;;;;;10256276;28;20051;-78
2023/06/21 09:36:14;;;;;;;5.05;3.63;;;;;;;;;;10257513;28;20054;-72
2023/06/21 09:41:17;;;;;;;5.80;3.50;;;;;;;;;;10277949;28;20038;-81
2023/06/21 09:46:17;;;;;;;3.85;3.42;;;;;;;;;;10261186;28;20070;-80
2023/06/21 09:51:22;;;;;;;5.43;3.40;;;;;;;;;;10277800;28;20062;-72
2023/06/21 09:56:22;;;;;;;5.05;3.20;;;;;;;;;;10261050;28;20126;-71
2023/06/21 10:01:24;;;;;;;4.03;2.70;;;;;;;;;;10265144;28;20047;-74
2023/06/21 10:06:27;;;;;;;5.55;3.15;;;;;;;;;;10264126;28;20112;-78
2023/06/21 10:11:28;;;;;;;4.43;3.15;;;;;;;;;;10253772;28;20082;-72
2023/06/21 10:16:28;;;;;;;6.63;3.70;;;;;;;;;;10260106;28;21014;-76
2023/06/21 10:21:29;;;;;;;5.10;3.40;;;;;;;;;;10275558;28;20042;-75
2023/06/21 10:26:30;;;;;;;4.53;3.57;;;;;;;;;;10265221;28;20035;-72
2023/06/21 10:31:32;;;;;;;4.70;3.30;;;;;;;;;;10273047;28;20097;-78
2023/06/21 10:36:35;;;;;;;4.35;3.20;;;;;;;;;;10279680;28;20333;-78
2023/06/21 10:41:36;;;;;;;4.75;3.50;;;;;;;;;;10273333;28;20097;-79
2023/06/21 10:46:41;;;;;;;7.18;3.55;;;;;;;;;;10273951;28;20297;-77
2023/06/21 10:51:42;;;;;;;4.63;3.03;;;;;;;;;;10307320;28;20126;-83
2023/06/21 10:56:42;;;;;;;4.47;3.50;;;;;;;;;;10305691;28;20064;-80
2023/06/21 11:01:43;;;;;;;4.47;3.27;;;;;;;;;;10262900;28;20054;-80
2023/06/21 11:06:44;;;;;;;3.97;3.13;;;;;;;;;;10263780;28;20148;-84
2023/06/21 11:11:51;;;;;;;3.77;2.87;;;;;;;;;;10266842;28;20872;-82
2023/06/21 11:17:05;;;;;;;5.03;3.30;;;;;;;;;;10256698;28;20734;-79
2023/06/21 11:22:16;;;;;;;4.95;3.00;;;;;;;;;;10263394;28;20110;-79
2023/06/21 11:27:17;;;;;;;3.40;2.65;;;;;;;;;;10240878;28;20039;-82
2023/06/21 11:32:18;;;;;;;4.97;3.00;;;;;;;;;;10258691;28;20054;-78
2023/06/21 11:37:32;;;;;;;3.72;2.80;;;;;;;;;;10258729;28;20039;-80
2023/06/21 11:42:34;;;;;;;3.17;2.67;;;;;;;;;;10254994;28;20046;-79
2023/06/21 11:47:35;;;;;;;3.78;2.65;;;;;;;;;;10244463;28;20149;-80
2023/06/21 11:52:35;;;;;;;6.50;3.37;;;;;;;;;;10265670;28;20051;-80
2023/06/21 11:57:43;;;;;;;3.33;3.03;;;;;;;;;;10273321;28;20450;-81
2023/06/21 12:02:43;;;;;;;3.78;3.30;;;;;;;;;;10288528;28;20054;-80
2023/06/21 12:07:44;;;;;;;3.77;3.20;;;;;;;;;;10300867;28;20043;-83
2023/06/21 12:12:44;;;;;;;3.23;2.90;;;;;;;;;;10296525;28;20054;-80
2023/06/21 12:17:45;;;;;;;3.97;3.33;;;;;;;;;;10277016;28;20058;-79
2023/06/21 12:22:49;;;;;;;3.27;2.90;;;;;;;;;;10291463;28;20087;-83
2023/06/21 12:27:54;;;;;;;5.65;3.40;;;;;;;;;;10269744;28;20078;-82
2023/06/21 12:32:55;;;;;;;5.45;3.88;;;;;;;;;;10281471;28;20046;-78
2023/06/21 12:37:57;;;;;;;5.53;4.07;;;;;;;;;;10266916;28;20849;-79
2023/06/21 12:42:57;;;;;;;7.40;4.70;;;;;;;;;;10264102;28;20126;-78
2023/06/21 12:47:58;;;;;;;6.43;4.13;;;;;;;;;;10261950;28;20360;-80
2023/06/21 12:52:59;;;;;;;5.77;4.40;;;;;;;;;;10262095;28;20925;-80
2023/06/21 12:57:59;;;;;;;6.05;5.03;;;;;;;;;;10248756;28;20242;-80
2023/06/21 13:03:00;;;;;;;5.75;4.15;;;;;;;;;;10263430;28;20466;-79
2023/06/21 13:08:00;;;;;;;5.93;4.57;;;;;;;;;;10263431;28;20059;-78
2023/06/21 13:13:01;;;;;;;6.87;4.63;;;;;;;;;;10271183;28;20918;-78
2023/06/21 13:18:01;;;;;;;8.07;5.33;;;;;;;;;;10268212;28;20520;-78
2023/06/21 13:23:03;;;;;;;8.23;5.30;;;;;;;;;;10269277;28;20043;-85
2023/06/21 13:28:03;;;;;;;7.18;5.47;;;;;;;;;;10251808;28;20313;-80
2023/06/21 13:33:04;;;;;;;7.75;5.60;;;;;;;;;;10265583;28;20184;-79
2023/06/21 13:38:04;;;;;;;6.87;5.57;;;;;;;;;;10264463;28;20050;-80
2023/06/21 13:43:05;;;;;;;6.23;5.63;;;;;;;;;;10260852;28;20337;-79
2023/06/21 13:48:05;;;;;;;8.57;5.63;;;;;;;;;;10237948;28;20058;-82
2023/06/21 13:53:07;;;;;;;7.97;5.88;;;;;;;;;;10253739;28;21663;-80
2023/06/21 13:58:07;;;;;;;7.07;6.03;;;;;;;;;;10277928;28;20169;-86
2023/06/21 14:03:08;;;;;;;7.13;6.18;;;;;;;;;;10258350;28;20058;-83
2023/06/21 14:08:08;;;;;;;5.78;5.20;;;;;;;;;;10266593;28;20950;-82
2023/06/21 14:13:09;;;;;;;6.40;5.53;;;;;;;;;;10263232;28;20145;-84
2023/06/21 14:18:09;;;;;;;5.22;4.60;;;;;;;;;;10264611;28;20321;-85
2023/06/21 14:23:10;;;;;;;6.80;5.45;;;;;;;;;;10261454;28;20127;-79
2023/06/21 14:28:11;;;;;;;7.10;5.23;;;;;;;;;;10266420;28;20126;-77
2023/06/21 14:33:12;;;;;;;5.30;4.80;;;;;;;;;;10265643;28;20038;-79
2023/06/21 14:38:12;;;;;;;5.57;4.60;;;;;;;;;;10265491;28;20043;-77
2023/06/21 14:43:14;;;;;;;7.47;5.57;;;;;;;;;;10259484;28;20058;-80
2023/06/21 14:48:14;;;;;;;;;;;;;;;;;;10255459;28;20422;-76
2023/06/21 14:53:14;;;;;;;5.05;4.55;;;;;;;;;;10265045;28;19925;-76
2023/06/21 14:58:15;;;;;;;4.40;3.73;;;;;;;;;;10264591;28;20104;-76
2023/06/21 15:03:15;;;;;;;4.70;4.30;;;;;;;;;;10257637;28;20051;-78
2023/06/21 15:08:19;;;;;;;6.60;4.60;;;;;;;;;;10245930;28;20301;-78
2023/06/21 15:13:19;;;;;;;7.13;5.22;;;;;;;;;;10247180;28;20058;-78
2023/06/21 15:18:21;;;;;;;5.77;5.03;;;;;;;;;;10271063;28;20039;-77
2023/06/21 15:23:22;;;;;;;4.70;4.30;;;;;;;;;;10267601;28;20043;-78
2023/06/21 15:28:22;;;;;;;5.43;3.90;;;;;;;;;;10273205;28;20839;-79
2023/06/21 15:33:23;;;;;;;5.70;4.43;;;;;;;;;;10280366;28;20043;-78
2023/06/21 15:38:23;;;;;;;4.85;4.35;;;;;;;;;;10272020;28;20043;-79
2023/06/21 15:43:24;;;;;;;7.57;6.23;;;;;;;;;;10281774;28;20127;-81
2023/06/21 15:48:25;;;;;;;4.63;4.22;;;;;;;;;;10293100;28;20054;-78
2023/06/21 15:53:25;;;;;;;5.43;4.93;;;;;;;;;;10295480;28;20043;-78
2023/06/21 15:58:26;;;;;;;5.13;4.53;;;;;;;;;;10272905;28;20051;-79
2023/06/21 16:03:26;;;;;;;4.73;4.20;;;;;;;;;;10268110;28;20049;-80
2023/06/21 16:08:28;;;;;;;4.57;4.10;;;;;;;;;;10270076;28;20042;-77
2023/06/21 16:13:30;;;;;;;;;;;;;;;;;;10282767;28;20401;-81
2023/06/21 16:18:30;;;;;;;5.18;3.88;;;;;;;;;;10310657;28;19928;-78
2023/06/21 16:23:30;;;;;;;4.73;4.33;;;;;;;;;;10273354;28;20122;-75
2023/06/21 16:28:34;;;;;;;5.28;4.40;;;;;;;;;;10267386;28;20046;-79
2023/06/21 16:33:34;;;;;;;5.05;4.40;;;;;;;;;;10301493;28;20054;-77
2023/06/21 16:38:37;;;;;;;6.00;5.50;;;;;;;;;;10302721;28;20050;-76
2023/06/21 16:43:37;;;;;;;4.55;4.15;;;;;;;;;;10322088;28;20062;-80
2023/06/21 16:48:38;;;;;;;5.40;4.60;;;;;;;;;;10322011;28;20238;-79
2023/06/21 16:53:38;;;;;;;5.67;5.07;;;;;;;;;;10332224;28;20038;-82
2023/06/21 16:58:38;;;;;;;5.53;4.93;;;;;;;;;;10319487;28;20057;-76
2023/06/21 17:03:39;;;;;;;6.40;4.87;;;;;;;;;;10310428;28;20046;-77
2023/06/21 17:08:39;;;;;;;6.60;5.90;;;;;;;;;;10303396;28;20054;-79
2023/06/21 17:13:39;;;;;;;6.77;6.07;;;;;;;;;;10312502;28;20802;-77
2023/06/21 17:18:40;;;;;;;6.20;5.60;;;;;;;;;;10313735;28;20054;-76
2023/06/21 17:23:41;;;;;;;7.93;6.90;;;;;;;;;;10309467;28;20164;-76
2023/06/21 17:28:41;;;;;;;7.47;6.23;;;;;;;;;;10301925;28;20475;-78
2023/06/21 17:33:41;;;;;;;7.27;6.57;;;;;;;;;;10294670;28;20561;-79
2023/06/21 17:38:42;;;;;;;6.87;6.03;;;;;;;;;;10300333;28;20062;-79
2023/06/21 17:43:42;;;;;;;7.87;6.83;;;;;;;;;;10311823;28;20053;-77
2023/06/21 17:48:42;;;;;;;8.83;7.13;;;;;;;;;;10309080;28;20854;-81
2023/06/21 17:53:43;;;;;;;7.87;7.10;;;;;;;;;;10276852;28;20047;-78
2023/06/21 17:58:43;;;;;;;8.43;7.40;;;;;;;;;;10308012;28;20053;-78
2023/06/21 18:03:43;;;;;;;9.37;8.30;;;;;;;;;;10286061;28;20086;-86
2023/06/21 18:08:45;;;;;;;8.10;7.30;;;;;;;;;;10310361;28;20049;-86
2023/06/21 18:13:45;;;;;;;7.88;7.07;;;;;;;;;;10308876;28;20530;-81
2023/06/21 18:18:46;;;;;;;9.53;7.80;;;;;;;;;;10309463;28;20038;-82
2023/06/21 18:23:46;;;;;;;8.83;7.73;;;;;;;;;;10307190;28;20608;-78
2023/06/21 18:28:46;;;;;;;7.77;6.87;;;;;;;;;;10306161;28;20078;-78
2023/06/21 18:33:47;;;;;;;8.57;7.77;;;;;;;;;;10281404;28;20482;-78
2023/06/21 18:38:47;;;;;;;9.87;7.87;;;;;;;;;;10282536;28;20078;-79
2023/06/21 18:43:48;;;;;;;8.63;7.70;;;;;;;;;;10288134;28;20130;-79
2023/06/21 18:48:51;;;;;;;10.35;9.35;;;;;;;;;;10288271;28;20062;-80
2023/06/21 18:53:53;;;;;;;9.35;8.45;;;;;;;;;;10322372;28;20042;-78
2023/06/21 18:58:56;;;;;;;10.10;8.25;;;;;;;;;;10306915;28;20042;-79
2023/06/21 19:03:57;;;;;;;9.20;8.10;;;;;;;;;;10293105;28;20053;-78
2023/06/21 19:08:58;;;;;;;9.50;8.38;;;;;;;;;;10289751;28;20061;-81
2023/06/21 19:14:00;;;;;;;10.55;9.30;;;;;;;;;;10299034;28;20483;-78
2023/06/21 19:19:00;;;;;;;9.65;8.65;;;;;;;;;;10305669;28;20077;-78
2023/06/21 19:24:00;;;;;;;10.82;9.27;;;;;;;;;;10294044;28;20254;-79
2023/06/21 19:29:01;;;;;;;9.87;8.97;;;;;;;;;;10298414;28;20065;-79
2023/06/21 19:34:01;;;;;;;10.98;9.23;;;;;;;;;;10304539;28;20297;-79
2023/06/21 19:39:02;;;;;;;10.70;9.63;;;;;;;;;;10305053;28;20045;-77
2023/06/21 19:44:03;;;;;;;9.90;8.90;;;;;;;;;;10319125;28;20309;-79
2023/06/21 19:49:04;;;;;;;10.15;9.10;;;;;;;;;;10303307;28;20061;-78
2023/06/21 19:54:05;;;;;;;11.25;9.73;;;;;;;;;;10319129;28;20133;-78
2023/06/21 19:59:05;;;;;;;11.00;9.90;;;;;;;;;;10309702;28;20050;-77
2023/06/21 20:04:06;;;;;;;13.47;11.77;;;;;;;;;;10269317;28;20066;-78
2023/06/21 20:09:09;;;;;;;10.50;9.30;;;;;;;;;;10304989;28;20320;-79
2023/06/21 20:14:10;;;;;;;10.77;9.60;;;;;;;;;;10308334;28;20069;-77
2023/06/21 20:19:14;;;;;;;12.50;10.37;;;;;;;;;;10312882;28;20074;-79
2023/06/21 20:24:14;;;;;;;10.48;9.38;;;;;;;;;;10289034;28;20085;-85
2023/06/21 20:29:14;;;;;;;11.57;9.67;;;;;;;;;;10317300;28;20053;-79
2023/06/21 20:34:16;;;;;;;11.30;10.10;;;;;;;;;;10309841;28;20359;-80
2023/06/21 20:39:18;;;;;;;10.38;9.27;;;;;;;;;;10304378;28;20286;-80
2023/06/21 20:44:19;;;;;;;9.95;8.95;;;;;;;;;;10307471;28;20105;-81
2023/06/21 20:49:20;;;;;;;11.32;9.68;;;;;;;;;;10345187;28;20066;-79
2023/06/21 20:54:20;;;;;;;11.82;9.35;;;;;;;;;;10342818;28;20101;-79
2023/06/21 20:59:21;;;;;;;10.50;9.40;;;;;;;;;;10310746;28;20113;-80
2023/06/21 21:04:22;;;;;;;11.60;10.23;;;;;;;;;;10310981;28;20297;-79
2023/06/21 21:09:23;;;;;;;11.57;9.30;;;;;;;;;;10322762;28;20050;-78
2023/06/21 21:14:23;;;;;;;11.93;10.40;;;;;;;;;;10314830;28;20034;-80
2023/06/21 21:19:24;;;;;;;10.13;9.13;;;;;;;;;;10290443;28;20065;-81
2023/06/21 21:24:24;;;;;;;10.83;9.73;;;;;;;;;;10298193;28;20047;-81
2023/06/21 21:29:24;;;;;;;10.07;9.07;;;;;;;;;;10296414;28;20109;-79
2023/06/21 21:34:25;;;;;;;11.63;9.40;;;;;;;;;;10296876;28;20039;-81
2023/06/21 21:39:25;;;;;;;9.47;8.47;;;;;;;;;;10314144;28;20854;-80
2023/06/21 21:44:26;;;;;;;9.73;8.40;;;;;;;;;;10296366;28;20471;-80
2023/06/21 21:49:26;;;;;;;9.00;8.10;;;;;;;;;;10310980;28;20058;-79
2023/06/21 21:54:26;;;;;;;10.27;8.57;;;;;;;;;;10305270;28;20277;-81
2023/06/21 21:59:27;;;;;;;9.40;7.78;;;;;;;;;;10292358;28;20856;-78
2023/06/21 22:04:27;;;;;;;9.00;7.43;;;;;;;;;;10292214;28;20471;-80
2023/06/21 22:09:28;;;;;;;8.67;7.77;;;;;;;;;;10302700;28;20333;-79
2023/06/21 22:14:32;;;;;;;9.17;8.27;;;;;;;;;;10292199;28;20081;-78
2023/06/21 22:19:32;;;;;;;8.80;7.68;;;;;;;;;;10296016;28;20046;-78
2023/06/21 22:24:33;;;;;;;10.60;8.43;;;;;;;;;;10298663;28;20042;-79
2023/06/21 22:29:33;;;;;;;10.20;7.93;;;;;;;;;;10299128;28;20057;-77
2023/06/21 22:34:36;;;;;;;10.82;8.20;;;;;;;;;;10304157;28;21973;-80
2023/06/21 22:39:36;;;;;;;11.18;8.77;;;;;;;;;;10306910;28;20061;-79
2023/06/21 22:44:37;;;;;;;11.53;8.57;;;;;;;;;;10308791;28;20073;-77
2023/06/21 22:49:38;;;;;;;9.70;8.68;;;;;;;;;;10331228;28;20479;-79
2023/06/21 22:54:39;;;;;;;11.95;8.80;;;;;;;;;;10322563;28;20038;-80
2023/06/21 22:59:39;;;;;;;9.68;8.25;;;;;;;;;;10319806;28;20117;-78
2023/06/21 23:04:40;;;;;;;9.40;8.40;;;;;;;;;;10334701;28;20050;-79
2023/06/21 23:09:40;;;;;;;11.63;9.07;;;;;;;;;;10328735;28;20062;-81
2023/06/21 23:14:42;;;;;;;11.73;8.60;;;;;;;;;;10353769;28;20297;-80
2023/06/21 23:19:43;;;;;;;9.75;7.63;;;;;;;;;;10367033;28;20337;-79
2023/06/21 23:24:43;;;;;;;10.30;8.53;;;;;;;;;;10339610;28;20116;-78
2023/06/21 23:29:46;;;;;;;11.52;8.60;;;;;;;;;;10319014;28;20495;-81
2023/06/21 23:34:46;;;;;;;12.95;8.88;;;;;;;;;;10310784;28;20051;-79
2023/06/21 23:39:53;;;;;;;9.80;8.50;;;;;;;;;;10301587;28;20121;-80
2023/06/21 23:44:54;;;;;;;14.00;9.77;;;;;;;;;;10304252;28;20125;-79
2023/06/21 23:49:55;;;;;;;11.13;8.70;;;;;;;;;;10306198;28;20058;-79
2023/06/21 23:54:56;;;;;;;9.70;7.57;;;;;;;;;;10308979;28;20034;-79
2023/06/21 23:59:59;;;;;;;11.90;8.70;;;;;;;;;;10368668;28;20294;-78
